Milwaukee, Wisconsin
Traffic Map
Current Weather Conditions
Milwaukee, Wisconsin
Clear
Clear
17°
Feels Like: 17°
Wind Chill: 17° Ceiling: Unl
Heat Index: 17° Visibility: 10mi
Dew Point: 11° Wind: 8mph
Humidity: 67% Direction: 20° (NNE)
Pressure: 30.2in Gusts: 0mph
Raw Report DataKMKE 241252Z 02007KT 10SM CLR 17/11 A3020 RMK AO2 SLP227 T01720111
Traffic Incident Summary
Active as of:
Severity:
Category:
InformationThere was an issue retrieving the traffic information for this location. Please try a different location or try again shortly.
Advertisements
Track Severe Weather on mobile